Kastav — 9AA6417 — position and weather

sailwx.info

Track history (hours):
 
Tides and Currents Weather Stations Pressure Air Temp Water Temp Dewpoint Dewpoint Depression Visibility Wind Speed Wind Dir Waves Ship Positions

Kastav

Last reported at 2015-Feb-26 21:33 UTC. Time now 2015-Mar-06 17:35 UTC.
Position N 25°40' W 079°31'.

Length 195 m; draft 10.6 m.

Type: Ship. MMSI: 238257000.

Date/timePositionNaut miles runAvg speedWind from/ knotsBaromVisibWave heightAir tempDewpointWater temp
2015-Feb-26 21:33N 25°40' W 079°31'1111.1
2015-Feb-26 20:33N 25°51' W 079°29'1110.9
2015-Feb-26 19:33N 26°02' W 079°27'1111.2
2015-Feb-26 18:33N 26°11' W 079°19'  
2015-Feb-18 07:20N 38°51' W 031°49'1010.5
2015-Feb-18 06:24N 38°55' W 031°37'910.4
2015-Feb-18 05:32N 38°58' W 031°27'1010.4
2015-Feb-18 04:33N 39°01' W 031°14'1010.3
2015-Feb-18 03:33N 39°04' W 031°02'1110.5
2015-Feb-18 02:33N 39°07' W 030°49'1111.3
2015-Feb-18 01:33N 39°11' W 030°35'1111.5
2015-Feb-18 00:33N 39°15' W 030°21'1111.5
2015-Feb-17 23:34N 39°18' W 030°07'1212.1
2015-Feb-17 22:33N 39°23' W 029°53'1212.5
2015-Feb-17 21:33N 39°30' W 029°39'1212.3
2015-Feb-17 20:33N 39°36' W 029°25'1212.4
2015-Feb-17 19:33N 39°42' W 029°11'2512.4
2015-Feb-17 17:33N 39°54' W 028°43'1312.4
2015-Feb-17 16:32N 40°01' W 028°29'2512.7
2015-Feb-17 14:33N 40°15' W 028°02'1412.9
2015-Feb-17 13:29N 40°23' W 027°47'1712.8
2015-Feb-17 12:08N 40°32' W 027°27'  
Track history (hours):
 
Tides and Currents Weather Stations Pressure Air Temp Water Temp Dewpoint Dewpoint Depression Visibility Wind Speed Wind Dir Waves Ship Positions

Kastav

Last reported at 2015-Feb-26 21:33 UTC. Time now 2015-Mar-06 17:35 UTC.
Position N 25°40' W 079°31'.

Length 195 m; draft 10.6 m.

Type: Ship. MMSI: 238257000.

Date/timePositionNaut miles runAvg speedWind from/ knotsBaromVisibWave heightAir tempDewpointWater temp
2015-Feb-26 21:33N 25°40' W 079°31'1111.1
2015-Feb-26 20:33N 25°51' W 079°29'1110.9
2015-Feb-26 19:33N 26°02' W 079°27'1111.2
2015-Feb-26 18:33N 26°11' W 079°19'  
2015-Feb-18 07:20N 38°51' W 031°49'1010.5
2015-Feb-18 06:24N 38°55' W 031°37'910.4
2015-Feb-18 05:32N 38°58' W 031°27'1010.4
2015-Feb-18 04:33N 39°01' W 031°14'1010.3
2015-Feb-18 03:33N 39°04' W 031°02'1110.5
2015-Feb-18 02:33N 39°07' W 030°49'1111.3
2015-Feb-18 01:33N 39°11' W 030°35'1111.5
2015-Feb-18 00:33N 39°15' W 030°21'1111.5
2015-Feb-17 23:34N 39°18' W 030°07'1212.1
2015-Feb-17 22:33N 39°23' W 029°53'1212.5
2015-Feb-17 21:33N 39°30' W 029°39'1212.3
2015-Feb-17 20:33N 39°36' W 029°25'1212.4
2015-Feb-17 19:33N 39°42' W 029°11'2512.4
2015-Feb-17 17:33N 39°54' W 028°43'1312.4
2015-Feb-17 16:32N 40°01' W 028°29'2512.7
2015-Feb-17 14:33N 40°15' W 028°02'1412.9
2015-Feb-17 13:29N 40°23' W 027°47'1712.8
2015-Feb-17 12:08N 40°32' W 027°27'  

Dump ship's entire track history